Terminal Aerodrome Forecast
Issued by NWS

Home | Current Version | Previous Version | Text Only | Print | Product List | Glossary On
Versions: 1 2 3 4 5 6 7 8 9 10 11 12 13 14 15 16
000
FTAK31 PAJN 191100
TAFAKT
TAF
PAKT 191133Z 1912/2012 13012KT P6SM -SHRA BKN015 OVC025
     FM191600 13010G20KT P6SM -SHRA SCT025 OVC040
      TEMPO 1916/1920 4SM -RA BKN020 OVC040
     FM192000 14009KT P6SM -SHRA SCT025 OVC040
     FM200700 14015G25KT 4SM -RA SCT015 OVC030
      AMD LTD TO CLD VIS AND WIND 1912/1915=

USA.gov is the U.S. government's official web portal to all federal, state and local government web resources and services.